Cosco Tengfei — HPMO — position and weather

sailwx.info

Track history (hours):
 
Tides and Currents Weather Stations Pressure Air Temp Water Temp Dewpoint Dewpoint Depression Visibility Wind Speed Wind Dir Waves Ship Positions

Cosco Tengfei

Last reported at 2014-Jul-24 05:04 UTC. Time now 2014-Jul-30 17:12 UTC.
Position N 31°04' E 122°48'.

Length 183 m; draft 8.3 m.

Type: Cargo ship. MMSI: 355518000.

Date/timePositionNaut miles runAvg speedWind from/ knotsBaromVisibWave heightAir tempDewpointWater temp
2014-Jul-24 05:04N 31°04' E 122°48'910.8
2014-Jul-24 04:17N 31°05' E 122°38'4813.0
2014-Jul-24 00:33N 31°19' E 121°44'2 2.4
2014-Jul-23 23:33N 31°19' E 121°41'0 0.0
2014-Jul-23 22:21N 31°19' E 121°41'0 0.1
2014-Jul-23 21:33N 31°19' E 121°41'0 0.0
2014-Jul-23 20:27N 31°19' E 121°41'0 0.0
2014-Jul-23 19:09N 31°19' E 121°41'0 0.0
2014-Jul-23 18:27N 31°19' E 121°41'0 0.0
2014-Jul-23 17:33N 31°19' E 121°41'0 0.0
2014-Jul-23 16:33N 31°19' E 121°41'0 0.0
2014-Jul-23 15:33N 31°19' E 121°41'0 0.0
2014-Jul-23 14:21N 31°19' E 121°41'0 0.0
2014-Jul-23 13:33N 31°19' E 121°41'0 0.0
2014-Jul-23 12:33N 31°19' E 121°41'0 0.0
2014-Jul-23 11:27N 31°19' E 121°41'0 0.0
2014-Jul-23 10:33N 31°19' E 121°41'0 0.0
2014-Jul-23 09:21N 31°19' E 121°41'0 0.0
2014-Jul-23 07:15N 31°19' E 121°41'0 0.0
2014-Jul-23 06:27N 31°19' E 121°41'0 0.0
2014-Jul-23 05:33N 31°19' E 121°41'0 0.0
2014-Jul-23 03:21N 31°19' E 121°41'0 0.0
2014-Jul-23 01:33N 31°19' E 121°41'3 2.7
2014-Jul-23 00:33N 31°21' E 121°39'3 2.7
2014-Jul-22 23:29N 31°23' E 121°36'0 0.1
2014-Jul-22 22:23N 31°23' E 121°36'0 0.0
2014-Jul-22 21:29N 31°23' E 121°36'0 0.0
2014-Jul-22 20:23N 31°23' E 121°36'0 0.0
2014-Jul-22 19:17N 31°23' E 121°36'0 0.0
2014-Jul-22 18:29N 31°23' E 121°36'0 0.0
2014-Jul-22 17:29N 31°23' E 121°36'0 0.1
2014-Jul-22 16:23N 31°23' E 121°36'0 0.0
2014-Jul-22 15:23N 31°23' E 121°36'0 0.0
2014-Jul-22 14:23N 31°23' E 121°36'0 0.0
2014-Jul-22 13:29N 31°23' E 121°36'0 0.0
2014-Jul-22 12:29N 31°23' E 121°36'0 0.0
2014-Jul-22 11:29N 31°23' E 121°36'0 0.0
2014-Jul-22 10:11N 31°23' E 121°36'0 0.1
2014-Jul-22 09:23N 31°23' E 121°36'0 0.1
2014-Jul-22 08:11N 31°23' E 121°36'0 0.0
2014-Jul-22 06:29N 31°23' E 121°36'0 0.0
2014-Jul-22 05:29N 31°23' E 121°36'0 0.0
2014-Jul-22 04:23N 31°23' E 121°36'0 0.1
2014-Jul-22 03:23N 31°23' E 121°36'0 0.0
2014-Jul-22 02:17N 31°23' E 121°36'0 0.0
2014-Jul-22 01:23N 31°23' E 121°36'0 0.0
2014-Jul-22 00:17N 31°23' E 121°36'0 0.0
2014-Jul-21 23:29N 31°23' E 121°36'0 0.0
2014-Jul-21 22:17N 31°23' E 121°36'0 0.0
2014-Jul-21 21:17N 31°23' E 121°36'0 0.0
2014-Jul-21 20:29N 31°23' E 121°36'0 0.0
2014-Jul-21 20:18N 31°23' E 121°36'0 0.0
2014-Jul-21 19:29N 31°23' E 121°36'0 0.0
2014-Jul-21 18:17N 31°23' E 121°36'0 0.0
2014-Jul-21 17:23N 31°23' E 121°36'0 0.0
2014-Jul-21 16:26N 31°23' E 121°36'0 0.1
2014-Jul-21 15:23N 31°23' E 121°36'0 0.1
2014-Jul-21 14:29N 31°23' E 121°36'3 3.7
2014-Jul-21 13:33N 31°24' E 121°32'3 2.5
2014-Jul-21 12:29N 31°22' E 121°30'0 0.0
2014-Jul-21 11:23N 31°22' E 121°30'0 0.0
2014-Jul-21 10:23N 31°22' E 121°30'0 0.0
2014-Jul-21 09:29N 31°22' E 121°30'0 0.0
2014-Jul-21 07:29N 31°22' E 121°30'0 0.0
2014-Jul-21 06:29N 31°22' E 121°30'0 0.0
2014-Jul-21 05:29N 31°22' E 121°30'0 0.0
2014-Jul-21 04:29N 31°22' E 121°30'0 0.0
2014-Jul-21 03:29N 31°22' E 121°30'0 0.0
2014-Jul-21 02:05N 31°22' E 121°30'0 0.0
2014-Jul-21 01:23N 31°22' E 121°30'0 0.0
2014-Jul-21 00:26N 31°22' E 121°30'3 3.3
2014-Jul-20 23:33N 31°24' E 121°32'6 6.3
2014-Jul-20 22:33N 31°21' E 121°39'1010.2
2014-Jul-20 21:34N 31°17' E 121°50'1414.2
2014-Jul-20 20:33N 31°14' E 122°06'1212.2
2014-Jul-20 19:32N 31°07' E 122°18'340 9.7
2014-Jul-19 08:31N 36°46' E 122°47'1616.1
2014-Jul-19 07:32N 37°02' E 122°47'1915.5
2014-Jul-19 06:17N 37°21' E 122°47'1114.3
2014-Jul-19 05:33N 37°31' E 122°42'1414.6
2014-Jul-19 04:34N 37°40' E 122°28'1414.5
2014-Jul-19 03:34N 37°48' E 122°13'4715.3
2014-Jul-19 00:30N 38°18' E 121°27'15114.9
2014-Jul-18 14:20N 38°51' E 118°19'1012.7
2014-Jul-18 13:33N 38°54' E 118°07'1312.5
2014-Jul-18 12:33N 38°58' E 117°51'5 5.3
2014-Jul-18 11:32N 39°01' E 117°46'0 0.0
2014-Jul-18 10:29N 39°01' E 117°46'0 0.0
2014-Jul-18 09:29N 39°01' E 117°46'0 0.0
2014-Jul-18 08:29N 39°01' E 117°46'0 0.0
2014-Jul-18 07:32N 39°01' E 117°46'0 0.0
2014-Jul-18 06:32N 39°01' E 117°46'0 0.0
2014-Jul-18 05:32N 39°01' E 117°46'0 0.0
2014-Jul-18 04:32N 39°01' E 117°46'2 2.5
2014-Jul-18 03:34N 38°59' E 117°47'1211.7
2014-Jul-18 02:33N 38°56' E 118°02'5 4.8
2014-Jul-18 01:31N 38°56' E 118°08'0 0.1
2014-Jul-18 00:25N 38°56' E 118°08'0 0.0
2014-Jul-17 23:31N 38°56' E 118°08'0 0.0
2014-Jul-17 22:31N 38°56' E 118°08'0 0.0
2014-Jul-17 20:22N 38°56' E 118°08'0 0.0
2014-Jul-17 18:31N 38°56' E 118°08'0 0.1
2014-Jul-17 16:22N 38°56' E 118°08'0 0.0
2014-Jul-17 15:31N 38°56' E 118°08'0 0.0
2014-Jul-17 14:28N 38°56' E 118°08'0 0.1
2014-Jul-17 13:25N 38°56' E 118°08'0 0.0
2014-Jul-17 12:28N 38°56' E 118°08'0 0.0
2014-Jul-17 11:31N 38°56' E 118°08'0 0.0
2014-Jul-17 10:31N 38°56' E 118°08'0 0.0
2014-Jul-17 09:31N 38°56' E 118°08'0 0.0
2014-Jul-17 08:25N 38°56' E 118°08'0 0.1
2014-Jul-17 07:22N 38°56' E 118°08'0 0.0
2014-Jul-17 06:31N 38°56' E 118°08'0 0.0
2014-Jul-17 05:31N 38°56' E 118°08'0 0.0
2014-Jul-17 04:28N 38°56' E 118°08'0 0.0
2014-Jul-17 03:31N 38°56' E 118°08'0 0.0
2014-Jul-17 02:28N 38°56' E 118°08'0 0.1
2014-Jul-17 01:31N 38°56' E 118°09'0 0.1
2014-Jul-17 00:34N 38°56' E 118°08'8 7.5
2014-Jul-16 23:33N 38°52' E 118°17'22115.4
2014-Jul-16 09:11N 37°40' E 122°43'4115.1
2014-Jul-16 06:28N 36°59' E 122°53'1415.6
2014-Jul-16 05:33N 36°45' E 122°53'34016.1
2014-Jul-15 08:30N 31°06' E 122°37'1613.2
2014-Jul-15 07:18N 31°06' E 122°19'2714.0
2014-Jul-15 05:22N 31°17' E 121°50'8 9.6
2014-Jul-15 04:33N 31°19' E 121°41'0 0.0
2014-Jul-15 02:18N 31°19' E 121°41'0 0.0
2014-Jul-14 23:24N 31°19' E 121°41'0 0.0
2014-Jul-14 22:18N 31°19' E 121°41'0 0.0
2014-Jul-14 21:06N 31°19' E 121°41'0 0.0
2014-Jul-14 19:30N 31°19' E 121°41'0 0.0
2014-Jul-14 18:30N 31°19' E 121°41'0 0.0
2014-Jul-14 17:33N 31°19' E 121°41'1 1.0
2014-Jul-14 16:33N 31°20' E 121°40'1010.1
2014-Jul-14 15:33N 31°16' E 121°51'2411.8
2014-Jul-14 13:29N 31°07' E 122°18'  
Track history (hours):
 
Tides and Currents Weather Stations Pressure Air Temp Water Temp Dewpoint Dewpoint Depression Visibility Wind Speed Wind Dir Waves Ship Positions

Cosco Tengfei

Last reported at 2014-Jul-24 05:04 UTC. Time now 2014-Jul-30 17:12 UTC.
Position N 31°04' E 122°48'.

Length 183 m; draft 8.3 m.

Type: Cargo ship. MMSI: 355518000.

Date/timePositionNaut miles runAvg speedWind from/ knotsBaromVisibWave heightAir tempDewpointWater temp
2014-Jul-24 05:04N 31°04' E 122°48'910.8
2014-Jul-24 04:17N 31°05' E 122°38'4813.0
2014-Jul-24 00:33N 31°19' E 121°44'2 2.4
2014-Jul-23 23:33N 31°19' E 121°41'0 0.0
2014-Jul-23 22:21N 31°19' E 121°41'0 0.1
2014-Jul-23 21:33N 31°19' E 121°41'0 0.0
2014-Jul-23 20:27N 31°19' E 121°41'0 0.0
2014-Jul-23 19:09N 31°19' E 121°41'0 0.0
2014-Jul-23 18:27N 31°19' E 121°41'0 0.0
2014-Jul-23 17:33N 31°19' E 121°41'0 0.0
2014-Jul-23 16:33N 31°19' E 121°41'0 0.0
2014-Jul-23 15:33N 31°19' E 121°41'0 0.0
2014-Jul-23 14:21N 31°19' E 121°41'0 0.0
2014-Jul-23 13:33N 31°19' E 121°41'0 0.0
2014-Jul-23 12:33N 31°19' E 121°41'0 0.0
2014-Jul-23 11:27N 31°19' E 121°41'0 0.0
2014-Jul-23 10:33N 31°19' E 121°41'0 0.0
2014-Jul-23 09:21N 31°19' E 121°41'0 0.0
2014-Jul-23 07:15N 31°19' E 121°41'0 0.0
2014-Jul-23 06:27N 31°19' E 121°41'0 0.0
2014-Jul-23 05:33N 31°19' E 121°41'0 0.0
2014-Jul-23 03:21N 31°19' E 121°41'0 0.0
2014-Jul-23 01:33N 31°19' E 121°41'3 2.7
2014-Jul-23 00:33N 31°21' E 121°39'3 2.7
2014-Jul-22 23:29N 31°23' E 121°36'0 0.1
2014-Jul-22 22:23N 31°23' E 121°36'0 0.0
2014-Jul-22 21:29N 31°23' E 121°36'0 0.0
2014-Jul-22 20:23N 31°23' E 121°36'0 0.0
2014-Jul-22 19:17N 31°23' E 121°36'0 0.0
2014-Jul-22 18:29N 31°23' E 121°36'0 0.0
2014-Jul-22 17:29N 31°23' E 121°36'0 0.1
2014-Jul-22 16:23N 31°23' E 121°36'0 0.0
2014-Jul-22 15:23N 31°23' E 121°36'0 0.0
2014-Jul-22 14:23N 31°23' E 121°36'0 0.0
2014-Jul-22 13:29N 31°23' E 121°36'0 0.0
2014-Jul-22 12:29N 31°23' E 121°36'0 0.0
2014-Jul-22 11:29N 31°23' E 121°36'0 0.0
2014-Jul-22 10:11N 31°23' E 121°36'0 0.1
2014-Jul-22 09:23N 31°23' E 121°36'0 0.1
2014-Jul-22 08:11N 31°23' E 121°36'0 0.0
2014-Jul-22 06:29N 31°23' E 121°36'0 0.0
2014-Jul-22 05:29N 31°23' E 121°36'0 0.0
2014-Jul-22 04:23N 31°23' E 121°36'0 0.1
2014-Jul-22 03:23N 31°23' E 121°36'0 0.0
2014-Jul-22 02:17N 31°23' E 121°36'0 0.0
2014-Jul-22 01:23N 31°23' E 121°36'0 0.0
2014-Jul-22 00:17N 31°23' E 121°36'0 0.0
2014-Jul-21 23:29N 31°23' E 121°36'0 0.0
2014-Jul-21 22:17N 31°23' E 121°36'0 0.0
2014-Jul-21 21:17N 31°23' E 121°36'0 0.0
2014-Jul-21 20:29N 31°23' E 121°36'0 0.0
2014-Jul-21 20:18N 31°23' E 121°36'0 0.0
2014-Jul-21 19:29N 31°23' E 121°36'0 0.0
2014-Jul-21 18:17N 31°23' E 121°36'0 0.0
2014-Jul-21 17:23N 31°23' E 121°36'0 0.0
2014-Jul-21 16:26N 31°23' E 121°36'0 0.1
2014-Jul-21 15:23N 31°23' E 121°36'0 0.1
2014-Jul-21 14:29N 31°23' E 121°36'3 3.7
2014-Jul-21 13:33N 31°24' E 121°32'3 2.5
2014-Jul-21 12:29N 31°22' E 121°30'0 0.0
2014-Jul-21 11:23N 31°22' E 121°30'0 0.0
2014-Jul-21 10:23N 31°22' E 121°30'0 0.0
2014-Jul-21 09:29N 31°22' E 121°30'0 0.0
2014-Jul-21 07:29N 31°22' E 121°30'0 0.0
2014-Jul-21 06:29N 31°22' E 121°30'0 0.0
2014-Jul-21 05:29N 31°22' E 121°30'0 0.0
2014-Jul-21 04:29N 31°22' E 121°30'0 0.0
2014-Jul-21 03:29N 31°22' E 121°30'0 0.0
2014-Jul-21 02:05N 31°22' E 121°30'0 0.0
2014-Jul-21 01:23N 31°22' E 121°30'0 0.0
2014-Jul-21 00:26N 31°22' E 121°30'3 3.3
2014-Jul-20 23:33N 31°24' E 121°32'6 6.3
2014-Jul-20 22:33N 31°21' E 121°39'1010.2
2014-Jul-20 21:34N 31°17' E 121°50'1414.2
2014-Jul-20 20:33N 31°14' E 122°06'1212.2
2014-Jul-20 19:32N 31°07' E 122°18'340 9.7
2014-Jul-19 08:31N 36°46' E 122°47'1616.1
2014-Jul-19 07:32N 37°02' E 122°47'1915.5
2014-Jul-19 06:17N 37°21' E 122°47'1114.3
2014-Jul-19 05:33N 37°31' E 122°42'1414.6
2014-Jul-19 04:34N 37°40' E 122°28'1414.5
2014-Jul-19 03:34N 37°48' E 122°13'4715.3
2014-Jul-19 00:30N 38°18' E 121°27'15114.9
2014-Jul-18 14:20N 38°51' E 118°19'1012.7
2014-Jul-18 13:33N 38°54' E 118°07'1312.5
2014-Jul-18 12:33N 38°58' E 117°51'5 5.3
2014-Jul-18 11:32N 39°01' E 117°46'0 0.0
2014-Jul-18 10:29N 39°01' E 117°46'0 0.0
2014-Jul-18 09:29N 39°01' E 117°46'0 0.0
2014-Jul-18 08:29N 39°01' E 117°46'0 0.0
2014-Jul-18 07:32N 39°01' E 117°46'0 0.0
2014-Jul-18 06:32N 39°01' E 117°46'0 0.0
2014-Jul-18 05:32N 39°01' E 117°46'0 0.0
2014-Jul-18 04:32N 39°01' E 117°46'2 2.5
2014-Jul-18 03:34N 38°59' E 117°47'1211.7
2014-Jul-18 02:33N 38°56' E 118°02'5 4.8
2014-Jul-18 01:31N 38°56' E 118°08'0 0.1
2014-Jul-18 00:25N 38°56' E 118°08'0 0.0
2014-Jul-17 23:31N 38°56' E 118°08'0 0.0
2014-Jul-17 22:31N 38°56' E 118°08'0 0.0
2014-Jul-17 20:22N 38°56' E 118°08'0 0.0
2014-Jul-17 18:31N 38°56' E 118°08'0 0.1
2014-Jul-17 16:22N 38°56' E 118°08'0 0.0
2014-Jul-17 15:31N 38°56' E 118°08'0 0.0
2014-Jul-17 14:28N 38°56' E 118°08'0 0.1
2014-Jul-17 13:25N 38°56' E 118°08'0 0.0
2014-Jul-17 12:28N 38°56' E 118°08'0 0.0
2014-Jul-17 11:31N 38°56' E 118°08'0 0.0
2014-Jul-17 10:31N 38°56' E 118°08'0 0.0
2014-Jul-17 09:31N 38°56' E 118°08'0 0.0
2014-Jul-17 08:25N 38°56' E 118°08'0 0.1
2014-Jul-17 07:22N 38°56' E 118°08'0 0.0
2014-Jul-17 06:31N 38°56' E 118°08'0 0.0
2014-Jul-17 05:31N 38°56' E 118°08'0 0.0
2014-Jul-17 04:28N 38°56' E 118°08'0 0.0
2014-Jul-17 03:31N 38°56' E 118°08'0 0.0
2014-Jul-17 02:28N 38°56' E 118°08'0 0.1
2014-Jul-17 01:31N 38°56' E 118°09'0 0.1
2014-Jul-17 00:34N 38°56' E 118°08'8 7.5
2014-Jul-16 23:33N 38°52' E 118°17'22115.4
2014-Jul-16 09:11N 37°40' E 122°43'4115.1
2014-Jul-16 06:28N 36°59' E 122°53'1415.6
2014-Jul-16 05:33N 36°45' E 122°53'34016.1
2014-Jul-15 08:30N 31°06' E 122°37'1613.2
2014-Jul-15 07:18N 31°06' E 122°19'2714.0
2014-Jul-15 05:22N 31°17' E 121°50'8 9.6
2014-Jul-15 04:33N 31°19' E 121°41'0 0.0
2014-Jul-15 02:18N 31°19' E 121°41'0 0.0
2014-Jul-14 23:24N 31°19' E 121°41'0 0.0
2014-Jul-14 22:18N 31°19' E 121°41'0 0.0
2014-Jul-14 21:06N 31°19' E 121°41'0 0.0
2014-Jul-14 19:30N 31°19' E 121°41'0 0.0
2014-Jul-14 18:30N 31°19' E 121°41'0 0.0
2014-Jul-14 17:33N 31°19' E 121°41'1 1.0
2014-Jul-14 16:33N 31°20' E 121°40'1010.1
2014-Jul-14 15:33N 31°16' E 121°51'2411.8
2014-Jul-14 13:29N 31°07' E 122°18'  

Dump ship's entire track history